createdAt,value
2017-12-14T00:01:26.296Z,95082.49
2017-12-14T00:03:53.849Z,95096.30
2017-12-14T00:06:21.409Z,95095.13
2017-12-14T00:08:48.964Z,95094.40
2017-12-14T00:11:16.505Z,95080.42
2017-12-14T00:13:44.018Z,95094.52
2017-12-14T00:16:11.603Z,95092.03
2017-12-14T00:18:39.123Z,95092.05
2017-12-14T00:21:06.692Z,95090.42
2017-12-14T00:23:34.292Z,95095.52
2017-12-14T00:26:01.827Z,95097.97
2017-12-14T00:28:29.368Z,95095.55
2017-12-14T00:30:56.915Z,95103.08
2017-12-14T00:33:24.497Z,95108.42
2017-12-14T00:35:52.118Z,95107.48
2017-12-14T00:38:19.682Z,95107.64
2017-12-14T00:40:47.305Z,95098.55
2017-12-14T00:43:14.862Z,95093.06
2017-12-14T00:45:42.645Z,95086.27
2017-12-14T00:48:10.236Z,95088.04
2017-12-14T00:50:37.786Z,95094.91
2017-12-14T00:53:05.466Z,95083.10
2017-12-14T00:55:33.034Z,95088.08
2017-12-14T00:58:00.622Z,95098.73
2017-12-14T01:00:28.227Z,95093.52
2017-12-14T01:02:56.000Z,95092.52
2017-12-14T01:05:23.580Z,95090.52
2017-12-14T01:07:51.221Z,95084.98
2017-12-14T01:10:19.004Z,95079.59
2017-12-14T01:12:46.583Z,95080.64
2017-12-14T01:15:14.178Z,95074.98
2017-12-14T01:17:41.983Z,95071.06
2017-12-14T01:20:09.572Z,95077.52
2017-12-14T01:22:37.138Z,95091.55
2017-12-14T01:25:04.894Z,95076.06
2017-12-14T01:27:32.439Z,95082.67
2017-12-14T01:29:59.983Z,95078.89
2017-12-14T01:32:27.776Z,95075.08
2017-12-14T01:34:55.312Z,95083.31
2017-12-14T01:37:23.114Z,95070.15
2017-12-14T01:39:50.659Z,95071.55
2017-12-14T01:42:18.257Z,95060.71
2017-12-14T01:44:45.854Z,95058.17
2017-12-14T01:47:13.465Z,95055.81
2017-12-14T01:49:41.253Z,95057.25
2017-12-14T01:52:08.825Z,95045.25
2017-12-14T01:54:36.500Z,95055.45
2017-12-14T01:57:04.115Z,95047.44
2017-12-14T01:59:32.358Z,95051.11
2017-12-14T02:01:59.979Z,95047.08
2017-12-14T02:04:27.559Z,95048.98
2017-12-14T02:06:55.161Z,95045.11
2017-12-14T02:09:22.723Z,95047.83
2017-12-14T02:11:50.265Z,95050.92
2017-12-14T02:14:17.847Z,95045.04
2017-12-14T02:16:45.465Z,95050.08
2017-12-14T02:19:13.037Z,95061.46
2017-12-14T02:21:40.786Z,95058.66
2017-12-14T02:24:08.386Z,95056.16
2017-12-14T02:26:36.060Z,95051.22
2017-12-14T02:29:03.661Z,95043.61
2017-12-14T02:31:31.345Z,95038.09
2017-12-14T02:33:59.247Z,95041.70
2017-12-14T02:36:26.832Z,95039.09
2017-12-14T02:38:54.430Z,95044.16
2017-12-14T02:41:22.392Z,95041.46
2017-12-14T02:43:50.200Z,95040.52
2017-12-14T02:46:17.859Z,95050.48
2017-12-14T02:48:45.445Z,95053.56
2017-12-14T02:51:13.091Z,95055.23
2017-12-14T02:53:40.760Z,95055.52
2017-12-14T02:56:08.361Z,95055.60
2017-12-14T02:58:35.972Z,95049.16
2017-12-14T03:01:03.564Z,95043.05
2017-12-14T03:03:31.380Z,95049.25
2017-12-14T03:05:58.956Z,95051.60
2017-12-14T03:08:26.605Z,95048.03
2017-12-14T03:10:54.200Z,95045.59
2017-12-14T03:13:21.798Z,95056.62
2017-12-14T03:15:49.368Z,95059.77
2017-12-14T03:18:17.180Z,95057.27
2017-12-14T03:20:44.758Z,95054.08
2017-12-14T03:23:12.336Z,95067.95
2017-12-14T03:25:39.912Z,95072.72
2017-12-14T03:28:07.485Z,95070.36
2017-12-14T03:30:35.068Z,95079.70
2017-12-14T03:33:02.841Z,95077.77
2017-12-14T03:35:30.377Z,95076.46
2017-12-14T03:37:57.967Z,95073.89
2017-12-14T03:40:25.540Z,95069.83
2017-12-14T03:42:53.122Z,95075.70
2017-12-14T03:45:20.731Z,95078.68
2017-12-14T03:47:48.281Z,95084.94
2017-12-14T03:50:15.887Z,95096.36
2017-12-14T03:52:43.696Z,95085.92
2017-12-14T03:55:11.465Z,95087.10
2017-12-14T03:57:38.992Z,95078.04
2017-12-14T04:00:06.653Z,95088.98
2017-12-14T04:02:34.484Z,95091.54
2017-12-14T04:05:02.069Z,95094.90
2017-12-14T04:07:29.654Z,95095.63
2017-12-14T04:09:57.207Z,95095.20
2017-12-14T04:12:24.847Z,95105.65
2017-12-14T04:14:52.433Z,95103.89
2017-12-14T04:17:20.036Z,95103.67
2017-12-14T04:19:47.647Z,95099.67
2017-12-14T04:22:15.223Z,95098.56
2017-12-14T04:24:42.818Z,95092.80
2017-12-14T04:27:10.603Z,95099.81
2017-12-14T04:29:38.234Z,95100.19
2017-12-14T04:32:05.898Z,95100.41
2017-12-14T04:34:33.487Z,95096.70
2017-12-14T04:37:01.155Z,95092.22
2017-12-14T04:39:28.765Z,95097.29
2017-12-14T04:41:56.370Z,95096.86
2017-12-14T04:44:23.974Z,95096.02
2017-12-14T04:46:51.550Z,95090.31
2017-12-14T04:49:19.191Z,95086.09
2017-12-14T04:51:46.986Z,95099.61
2017-12-14T04:54:14.644Z,95104.16
2017-12-14T04:56:42.270Z,95092.22
2017-12-14T04:59:09.865Z,95095.36
2017-12-14T05:01:37.493Z,95082.89
2017-12-14T05:04:05.300Z,95075.42
2017-12-14T05:06:33.268Z,95070.34
2017-12-14T05:09:00.921Z,95073.53
2017-12-14T05:11:28.571Z,95073.20
2017-12-14T05:13:56.121Z,95062.77
2017-12-14T05:16:23.791Z,95063.68
2017-12-14T05:18:51.342Z,95061.72
2017-12-14T05:21:18.951Z,95058.05
2017-12-14T05:23:46.548Z,95053.82
2017-12-14T05:26:14.115Z,95064.61
2017-12-14T05:28:41.731Z,95061.95
2017-12-14T05:31:09.389Z,95055.97
2017-12-14T05:33:36.957Z,95053.52
2017-12-14T05:36:04.585Z,95054.94
2017-12-14T05:38:32.237Z,95067.63
2017-12-14T05:40:59.859Z,95063.54
2017-12-14T05:43:27.466Z,95064.60
2017-12-14T05:45:55.974Z,95064.09
2017-12-14T05:48:23.623Z,95060.95
2017-12-14T05:50:51.245Z,95059.64
2017-12-14T05:53:18.907Z,95059.11
2017-12-14T05:55:46.476Z,95066.61
2017-12-14T05:58:14.086Z,95064.70
2017-12-14T06:00:41.687Z,95090.43
2017-12-14T06:03:09.309Z,95092.39
2017-12-14T06:05:36.897Z,95092.78
2017-12-14T06:08:04.547Z,95089.38
2017-12-14T06:10:32.139Z,95097.48
2017-12-14T06:12:59.768Z,95096.64
2017-12-14T06:15:28.301Z,95107.13
2017-12-14T06:17:55.873Z,95107.86
2017-12-14T06:20:23.765Z,95108.86
2017-12-14T06:22:51.352Z,95095.43
2017-12-14T06:25:18.947Z,95099.51
2017-12-14T06:27:46.541Z,95094.14
2017-12-14T06:30:14.261Z,95092.27
2017-12-14T06:32:41.963Z,95094.90
2017-12-14T06:35:09.543Z,95098.23
2017-12-14T06:37:37.175Z,95098.23
2017-12-14T06:40:04.852Z,95087.99
2017-12-14T06:42:32.456Z,95099.52
2017-12-14T06:45:00.072Z,95097.85
2017-12-14T06:47:27.635Z,95092.75
2017-12-14T06:49:55.236Z,95094.55
2017-12-14T06:52:22.847Z,95088.92
2017-12-14T06:54:50.979Z,95100.06
2017-12-14T06:57:18.571Z,95099.31
2017-12-14T06:59:46.168Z,95090.08
2017-12-14T07:02:13.749Z,95087.95
2017-12-14T07:04:41.445Z,95094.48
2017-12-14T07:07:09.012Z,95100.20
2017-12-14T07:09:36.632Z,95095.89
2017-12-14T07:12:04.244Z,95089.06
2017-12-14T07:14:31.803Z,95103.33
2017-12-14T07:16:59.423Z,95113.66
2017-12-14T07:19:27.033Z,95110.20
2017-12-14T07:21:54.643Z,95114.53
2017-12-14T07:24:22.320Z,95106.17
2017-12-14T07:26:49.962Z,95096.52
2017-12-14T07:29:17.578Z,95106.83
2017-12-14T07:31:45.263Z,95110.06
2017-12-14T07:34:12.852Z,95106.97
2017-12-14T07:36:40.410Z,95115.19
2017-12-14T07:39:08.060Z,95116.11
2017-12-14T07:41:35.679Z,95120.33
2017-12-14T07:44:15.085Z,95115.78
2017-12-14T07:46:54.471Z,95122.19
2017-12-14T07:49:24.913Z,95123.50
2017-12-14T07:51:52.564Z,95125.55
2017-12-14T07:54:20.199Z,95124.50
2017-12-14T07:56:47.893Z,95113.64
2017-12-14T07:59:15.482Z,95112.86
2017-12-14T08:01:43.099Z,95109.80
2017-12-14T08:04:10.787Z,95103.63
2017-12-14T08:06:38.388Z,95105.59
2017-12-14T08:09:06.003Z,95107.94
2017-12-14T08:11:33.826Z,95117.52
2017-12-14T08:14:01.460Z,95124.75
2017-12-14T08:16:29.087Z,95109.65
2017-12-14T08:18:56.671Z,95112.96
2017-12-14T08:21:24.507Z,95110.13
2017-12-14T08:23:52.155Z,95117.35
2017-12-14T08:26:19.774Z,95116.64
2017-12-14T08:28:47.338Z,95113.30
2017-12-14T08:31:15.950Z,95126.45
2017-12-14T08:33:43.670Z,95112.87
2017-12-14T08:36:11.247Z,95121.22
2017-12-14T08:38:38.923Z,95112.59
2017-12-14T08:41:06.557Z,95119.72
2017-12-14T08:43:34.147Z,95107.44
2017-12-14T08:46:01.811Z,95114.38
2017-12-14T08:48:29.393Z,95112.05
2017-12-14T08:50:56.981Z,95103.06
2017-12-14T08:53:24.655Z,95116.00
2017-12-14T08:55:52.297Z,95107.13
2017-12-14T08:58:19.945Z,95102.52
2017-12-14T09:00:47.581Z,95107.08
2017-12-14T09:03:15.246Z,95114.20
2017-12-14T09:05:42.819Z,95110.31
2017-12-14T09:08:10.407Z,95102.77
2017-12-14T09:10:37.977Z,95102.45
2017-12-14T09:13:05.566Z,95105.16
2017-12-14T09:15:34.171Z,95089.44
2017-12-14T09:18:01.976Z,95091.06
2017-12-14T09:20:29.540Z,95075.28
2017-12-14T09:22:57.168Z,95059.70
2017-12-14T09:25:24.755Z,95060.98
2017-12-14T09:27:52.371Z,95061.09
2017-12-14T09:30:19.994Z,95060.20
2017-12-14T09:32:47.550Z,95056.48
2017-12-14T09:35:15.183Z,95058.09
2017-12-14T09:37:42.826Z,95057.62
2017-12-14T09:40:10.423Z,95058.45
2017-12-14T09:42:37.958Z,95051.67
2017-12-14T09:45:05.561Z,95046.14
2017-12-14T09:47:33.156Z,95040.61
2017-12-14T09:50:00.776Z,95031.20
2017-12-14T09:52:28.386Z,94998.95
2017-12-14T09:54:56.034Z,94973.52
2017-12-14T09:57:23.640Z,94972.45
2017-12-14T09:59:51.246Z,94982.97
2017-12-14T10:02:18.860Z,94972.38
2017-12-14T10:04:46.439Z,94971.73
2017-12-14T10:07:14.256Z,94978.81
2017-12-14T10:09:41.878Z,94972.25
2017-12-14T10:12:09.519Z,94970.89
2017-12-14T10:14:37.111Z,94977.69
2017-12-14T10:17:04.764Z,94973.53
2017-12-14T10:19:32.401Z,94975.49
2017-12-14T10:22:00.041Z,94967.94
2017-12-14T10:24:27.686Z,94964.80
2017-12-14T10:26:55.250Z,94953.28
2017-12-14T10:29:22.805Z,94960.67
2017-12-14T10:31:50.450Z,94954.78
2017-12-14T10:34:18.032Z,94953.29
2017-12-14T10:36:45.628Z,94942.24
2017-12-14T10:39:13.293Z,94943.44
2017-12-14T10:41:40.928Z,94944.74
2017-12-14T10:44:08.583Z,94938.80
2017-12-14T10:46:36.209Z,94926.13
2017-12-14T10:49:03.820Z,94930.08
2017-12-14T10:51:31.432Z,94928.91
2017-12-14T10:53:59.187Z,94935.09
2017-12-14T10:56:26.841Z,94928.44
2017-12-14T10:58:54.453Z,94914.48
2017-12-14T11:01:27.588Z,94916.47
2017-12-14T11:03:55.179Z,94926.92
2017-12-14T11:06:22.879Z,94930.50
2017-12-14T11:08:50.500Z,94929.67
2017-12-14T11:11:18.134Z,94929.95
2017-12-14T11:13:45.741Z,94925.45
2017-12-14T11:16:13.368Z,94926.04
2017-12-14T11:18:40.945Z,94918.30
2017-12-14T11:21:08.736Z,94907.28
2017-12-14T11:23:36.403Z,94896.19
2017-12-14T11:26:03.993Z,94897.11
2017-12-14T11:28:31.762Z,94899.55
2017-12-14T11:30:59.441Z,94889.95
2017-12-14T11:33:26.995Z,94908.55
2017-12-14T11:35:54.583Z,94910.99
2017-12-14T11:38:22.205Z,94903.11
2017-12-14T11:40:49.731Z,94901.58
2017-12-14T11:43:17.334Z,94895.71
2017-12-14T11:45:44.919Z,94887.83
2017-12-14T11:48:12.686Z,94884.02
2017-12-14T11:50:40.564Z,94906.06
2017-12-14T11:53:08.251Z,94893.38
2017-12-14T11:56:24.408Z,94890.78
2017-12-14T11:58:52.099Z,94889.37
2017-12-14T12:01:19.704Z,94885.02
2017-12-14T12:03:47.352Z,94881.47
2017-12-14T12:06:14.977Z,94876.70
2017-12-14T12:08:42.682Z,94884.54
2017-12-14T12:11:10.781Z,94885.20
2017-12-14T12:13:38.726Z,94865.69
2017-12-14T12:16:06.404Z,94864.92
2017-12-14T12:18:34.115Z,94874.46
2017-12-14T12:21:01.820Z,94878.95
2017-12-14T12:23:29.516Z,94872.55
2017-12-14T12:25:57.066Z,94878.56
2017-12-14T12:28:25.233Z,94876.21
2017-12-14T12:30:52.850Z,94877.00
2017-12-14T12:33:20.858Z,94879.91
2017-12-14T12:35:48.450Z,94876.61
2017-12-14T12:38:17.137Z,94873.87
2017-12-14T12:43:20.527Z,94882.61
2017-12-14T12:45:48.328Z,94884.84
2017-12-14T12:48:15.886Z,94892.20
2017-12-14T12:50:43.509Z,94870.30
2017-12-14T12:53:11.154Z,94869.95
2017-12-14T12:55:38.765Z,94874.45
2017-12-14T12:58:06.371Z,94866.43
2017-12-14T13:00:33.992Z,94862.96
2017-12-14T13:03:01.615Z,94872.52
2017-12-14T13:05:29.187Z,94890.44
2017-12-14T13:07:56.831Z,94887.72
2017-12-14T13:10:24.405Z,94887.92
2017-12-14T13:12:52.009Z,94896.58
2017-12-14T13:15:19.657Z,94889.97
2017-12-14T13:17:47.240Z,94893.20
2017-12-14T13:20:14.838Z,94886.48
2017-12-14T13:22:42.602Z,94900.19
2017-12-14T13:25:10.204Z,94903.54
2017-12-14T13:27:37.804Z,94895.95
2017-12-14T13:30:06.837Z,94880.47
2017-12-14T13:32:34.438Z,94884.58
2017-12-14T13:35:02.087Z,94882.00
2017-12-14T13:37:29.928Z,94880.56
2017-12-14T13:39:57.577Z,94890.69
2017-12-14T13:42:25.303Z,94897.45
2017-12-14T13:44:52.941Z,94897.16
2017-12-14T13:47:20.863Z,94900.98
2017-12-14T13:49:49.038Z,94905.06
2017-12-14T13:52:16.742Z,94904.76
2017-12-14T13:54:44.333Z,94917.36
2017-12-14T13:57:12.102Z,94916.92
2017-12-14T13:59:39.720Z,94912.55
2017-12-14T14:02:07.407Z,94912.73
2017-12-14T14:04:35.019Z,94919.19
2017-12-14T14:07:02.604Z,94917.02
2017-12-14T14:09:30.289Z,94930.65
2017-12-14T14:11:57.803Z,94941.64
2017-12-14T14:14:26.087Z,94935.23
2017-12-14T14:16:53.690Z,94937.16
2017-12-14T14:19:21.286Z,94933.03
2017-12-14T14:21:49.848Z,94942.25
2017-12-14T14:24:17.418Z,94940.84
2017-12-14T14:26:45.069Z,94931.70
2017-12-14T14:29:12.631Z,94926.58
2017-12-14T14:31:40.249Z,94933.72
2017-12-14T14:34:07.835Z,94931.75
2017-12-14T14:36:35.368Z,94920.77
2017-12-14T14:39:02.996Z,94918.77
2017-12-14T14:41:30.562Z,94926.17
2017-12-14T14:43:58.358Z,94935.38
2017-12-14T14:46:26.057Z,94939.20
2017-12-14T14:48:53.704Z,94946.93
2017-12-14T14:51:21.284Z,94956.47
2017-12-14T14:53:48.917Z,94966.05
2017-12-14T14:56:16.541Z,94960.30
2017-12-14T14:58:44.281Z,94962.47
2017-12-14T15:01:12.076Z,94965.56
2017-12-14T15:03:39.830Z,94965.53
2017-12-14T15:06:07.377Z,94962.58
2017-12-14T15:08:34.956Z,94964.84
2017-12-14T15:11:02.515Z,94964.00
2017-12-14T15:13:30.106Z,94968.34
2017-12-14T15:15:57.684Z,94969.63
2017-12-14T15:18:25.253Z,94968.11
2017-12-14T15:20:52.847Z,94970.37
2017-12-14T15:23:20.453Z,94978.80
2017-12-14T15:25:48.823Z,94973.08
2017-12-14T15:28:16.587Z,94968.52
2017-12-14T15:30:44.350Z,94966.62
2017-12-14T15:33:11.977Z,94975.60
2017-12-14T15:35:39.577Z,94978.58
2017-12-14T15:38:07.519Z,94972.64
2017-12-14T15:40:35.676Z,94977.11
2017-12-14T15:43:03.266Z,94983.77
2017-12-14T15:45:30.840Z,94985.09
2017-12-14T15:47:58.631Z,94993.86
2017-12-14T15:50:26.324Z,94986.05
2017-12-14T15:52:54.014Z,94995.97
2017-12-14T15:55:21.610Z,94995.41
2017-12-14T15:57:49.162Z,94992.95
2017-12-14T16:00:17.024Z,94982.91
2017-12-14T16:02:44.568Z,94977.28
2017-12-14T16:05:12.149Z,94979.44
2017-12-14T16:07:39.920Z,94980.42
2017-12-14T16:10:07.807Z,94975.20
2017-12-14T16:12:35.906Z,94994.97
2017-12-14T16:15:03.591Z,95003.53
2017-12-14T16:17:31.432Z,95005.95
2017-12-14T16:19:58.987Z,94993.87
2017-12-14T16:22:26.627Z,95001.77
2017-12-14T16:24:54.230Z,95004.08
2017-12-14T16:27:21.812Z,94997.25
2017-12-14T16:29:49.389Z,94994.65
2017-12-14T16:32:17.008Z,95011.75
2017-12-14T16:34:44.891Z,95008.69
2017-12-14T16:37:12.859Z,95010.93
2017-12-14T16:39:40.443Z,95016.95
2017-12-14T16:42:08.022Z,95011.05
2017-12-14T16:44:35.686Z,95021.91
2017-12-14T16:47:03.465Z,95023.77
2017-12-14T16:49:31.012Z,95019.75
2017-12-14T16:51:58.621Z,95023.34
2017-12-14T16:54:26.198Z,95019.69
2017-12-14T16:56:53.766Z,95012.02
2017-12-14T16:59:21.521Z,95005.34
2017-12-14T17:01:49.174Z,95000.25
2017-12-14T17:04:16.778Z,94984.16
2017-12-14T17:06:44.339Z,94985.01
2017-12-14T17:09:12.044Z,94993.36
2017-12-14T17:11:39.577Z,94998.62
2017-12-14T17:14:07.398Z,95003.64
2017-12-14T17:16:34.976Z,95010.44
2017-12-14T17:19:02.561Z,95016.27
2017-12-14T17:21:30.135Z,95005.29
2017-12-14T17:23:57.813Z,95011.29
2017-12-14T17:26:25.779Z,95012.16
2017-12-14T17:28:53.373Z,95017.86
2017-12-14T17:31:21.326Z,95017.23
2017-12-14T17:33:48.925Z,95021.38
2017-12-14T17:36:16.506Z,95015.27
2017-12-14T17:38:44.085Z,95012.05
2017-12-14T17:41:11.772Z,95016.52
2017-12-14T17:43:39.351Z,95014.23
2017-12-14T17:46:07.054Z,95008.47
2017-12-14T17:48:34.630Z,95003.31
2017-12-14T17:51:02.200Z,94996.09
2017-12-14T17:53:30.007Z,95002.83
2017-12-14T17:55:57.629Z,95003.19
2017-12-14T17:58:25.188Z,95005.95
2017-12-14T18:00:52.759Z,95001.20
2017-12-14T18:03:20.448Z,95005.12
2017-12-14T18:05:48.024Z,95009.97
2017-12-14T18:08:15.687Z,95011.56
2017-12-14T18:10:43.303Z,95011.86
2017-12-14T18:13:10.852Z,95014.87
2017-12-14T18:15:38.582Z,95003.22
2017-12-14T18:18:06.137Z,95006.02
2017-12-14T18:20:34.718Z,94995.77
2017-12-14T18:23:02.940Z,95000.27
2017-12-14T18:25:30.502Z,95000.70
2017-12-14T18:27:58.083Z,94995.91
2017-12-14T18:30:26.407Z,95002.84
2017-12-14T18:32:55.084Z,95004.23
2017-12-14T18:35:23.612Z,94986.80
2017-12-14T18:37:51.982Z,95014.22
2017-12-14T18:40:19.875Z,95011.56
2017-12-14T18:42:47.667Z,95011.02
2017-12-14T18:45:15.693Z,95010.00
2017-12-14T18:47:43.595Z,95009.83
2017-12-14T18:50:11.194Z,95017.61
2017-12-14T18:52:38.888Z,95020.73
2017-12-14T18:55:06.531Z,95024.19
2017-12-14T18:57:34.560Z,95020.48
2017-12-14T19:00:02.173Z,95029.98
2017-12-14T19:02:29.826Z,95025.88
2017-12-14T19:04:57.612Z,95018.89
2017-12-14T19:07:25.265Z,95020.44
2017-12-14T19:09:53.032Z,95027.56
2017-12-14T19:12:20.886Z,95024.16
2017-12-14T19:14:48.550Z,95015.13
2017-12-14T19:17:16.251Z,95022.89
2017-12-14T19:19:43.931Z,95021.12
2017-12-14T19:22:12.567Z,95021.52
2017-12-14T19:24:40.327Z,95037.69
2017-12-14T19:27:07.952Z,95034.38
2017-12-14T19:29:35.654Z,95043.52
2017-12-14T19:32:03.332Z,95037.79
2017-12-14T19:34:30.986Z,95047.02
2017-12-14T19:36:59.259Z,95043.21
2017-12-14T19:39:26.914Z,95030.20
2017-12-14T19:41:54.565Z,95036.61
2017-12-14T19:44:22.171Z,95039.84
2017-12-14T19:46:49.775Z,95037.30
2017-12-14T19:49:17.366Z,95047.19
2017-12-14T19:51:44.939Z,95048.45
2017-12-14T19:54:13.162Z,95040.23
2017-12-14T19:56:40.735Z,95033.28
2017-12-14T19:59:09.609Z,95033.67
2017-12-14T20:01:37.285Z,95026.08
2017-12-14T20:04:04.863Z,95040.78
2017-12-14T20:06:32.684Z,95034.91
2017-12-14T20:09:00.300Z,95030.09
2017-12-14T20:11:27.894Z,95037.97
2017-12-14T20:13:55.485Z,95022.31
2017-12-14T20:16:23.163Z,95029.58
2017-12-14T20:18:50.727Z,95042.30
2017-12-14T20:21:19.238Z,95037.34
2017-12-14T20:23:47.249Z,95045.31
2017-12-14T20:26:14.904Z,95033.47
2017-12-14T20:28:43.235Z,95026.98
2017-12-14T20:31:10.957Z,95033.05
2017-12-14T20:33:39.786Z,95034.59
2017-12-14T20:36:07.926Z,95042.22
2017-12-14T20:38:41.150Z,95032.36
2017-12-14T20:41:09.096Z,95035.77
2017-12-14T20:43:50.822Z,95036.29
2017-12-14T20:46:18.424Z,95039.02
2017-12-14T20:48:58.317Z,95040.11
2017-12-14T20:51:26.615Z,95046.47
2017-12-14T20:54:07.198Z,95046.02
2017-12-14T20:56:34.971Z,95046.71
2017-12-14T20:59:03.392Z,95050.45
2017-12-14T21:01:31.013Z,95061.15
2017-12-14T21:03:58.541Z,95049.34
2017-12-14T21:06:26.133Z,95060.85
2017-12-14T21:08:53.723Z,95055.58
2017-12-14T21:11:21.291Z,95058.33
2017-12-14T21:13:56.657Z,95057.09
2017-12-14T21:16:35.010Z,95070.20
2017-12-14T21:19:02.644Z,95051.33
2017-12-14T21:21:30.215Z,95068.73
2017-12-14T21:23:57.748Z,95066.26
2017-12-14T21:26:25.315Z,95071.72
2017-12-14T21:28:55.003Z,95066.66
2017-12-14T21:31:22.554Z,95058.66
2017-12-14T21:33:50.209Z,95053.16
2017-12-14T21:36:17.832Z,95049.34
2017-12-14T21:38:45.971Z,95048.13
2017-12-14T21:41:14.752Z,95046.83
2017-12-14T21:43:42.388Z,95053.70
2017-12-14T21:46:15.660Z,95059.52
2017-12-14T21:48:43.213Z,95063.63
2017-12-14T21:51:10.963Z,95046.23
2017-12-14T21:53:38.531Z,95035.00
2017-12-14T21:56:06.111Z,95020.94
2017-12-14T21:58:33.940Z,95013.72
2017-12-14T22:01:01.721Z,95012.88
2017-12-14T22:03:29.739Z,95019.64
2017-12-14T22:05:57.290Z,95007.80
2017-12-14T22:08:24.875Z,95014.69
2017-12-14T22:10:52.432Z,95011.14
2017-12-14T22:13:19.960Z,95014.42
2017-12-14T22:15:47.529Z,95014.47
2017-12-14T22:18:15.078Z,95004.95
2017-12-14T22:20:43.125Z,95008.05
2017-12-14T22:23:10.702Z,95009.44
2017-12-14T22:25:38.240Z,94991.25
2017-12-14T22:28:05.853Z,94992.25
2017-12-14T22:30:33.418Z,94990.00
2017-12-14T22:33:01.778Z,94982.50
2017-12-14T22:35:29.312Z,94983.47
2017-12-14T22:37:56.897Z,94974.66
2017-12-14T22:40:24.468Z,94961.15
2017-12-14T22:42:51.972Z,94962.89
2017-12-14T22:45:19.543Z,94972.12
2017-12-14T22:47:47.076Z,94980.54
2017-12-14T22:50:14.618Z,94987.52
2017-12-14T22:52:42.168Z,94985.02
2017-12-14T22:55:09.762Z,94983.97
2017-12-14T22:57:37.525Z,94984.92
2017-12-14T23:00:06.311Z,94992.84
2017-12-14T23:02:34.072Z,94996.71
2017-12-14T23:05:01.595Z,94981.59
2017-12-14T23:07:29.192Z,94979.96
2017-12-14T23:09:56.726Z,94982.58
2017-12-14T23:12:24.299Z,94975.22
2017-12-14T23:14:51.868Z,94972.16
2017-12-14T23:17:19.652Z,94974.13
2017-12-14T23:19:47.243Z,94980.56
2017-12-14T23:22:14.820Z,94968.94
2017-12-14T23:24:42.467Z,94974.75
2017-12-14T23:27:10.256Z,94977.89
2017-12-14T23:29:37.868Z,94976.27
2017-12-14T23:32:05.454Z,94982.75
2017-12-14T23:34:32.976Z,94979.41
2017-12-14T23:37:00.508Z,94989.22
2017-12-14T23:39:28.379Z,94975.52
2017-12-14T23:41:55.902Z,94977.96
2017-12-14T23:44:24.385Z,94978.12
2017-12-14T23:46:53.159Z,94985.36
2017-12-14T23:49:21.194Z,94975.52
2017-12-14T23:51:49.446Z,94961.00
2017-12-14T23:54:17.377Z,94951.02
2017-12-14T23:56:45.754Z,94953.66
2017-12-14T23:59:14.705Z,94945.87
